createdAt,value
2019-03-22T00:00:37.987Z,28.30
2019-03-22T00:03:07.953Z,27.60
2019-03-22T00:05:38.300Z,27.73
2019-03-22T00:08:08.622Z,27.00
2019-03-22T00:10:38.086Z,27.93
2019-03-22T00:13:08.739Z,28.67
2019-03-22T00:15:38.414Z,28.57
2019-03-22T00:18:09.236Z,28.43
2019-03-22T00:20:39.219Z,28.07
2019-03-22T00:23:08.881Z,29.07
2019-03-22T00:25:38.775Z,29.63
2019-03-22T00:28:08.879Z,29.30
2019-03-22T00:30:38.553Z,31.40
2019-03-22T00:33:07.913Z,31.07
2019-03-22T00:35:37.802Z,32.63
2019-03-22T00:38:07.162Z,30.87
2019-03-22T00:40:37.825Z,30.73
2019-03-22T00:43:07.305Z,31.57
2019-03-22T00:45:37.587Z,31.40
2019-03-22T00:48:06.957Z,30.70
2019-03-22T00:50:36.323Z,31.90
2019-03-22T00:53:05.950Z,31.77
2019-03-22T00:55:36.273Z,33.17
2019-03-22T00:58:05.743Z,31.03
2019-03-22T01:00:35.203Z,32.33
2019-03-22T01:03:04.971Z,31.83
2019-03-22T01:05:35.028Z,30.90
2019-03-22T01:08:04.707Z,31.63
2019-03-22T01:10:35.105Z,31.70
2019-03-22T01:13:04.518Z,31.43
2019-03-22T01:15:34.435Z,32.93
2019-03-22T01:18:04.683Z,31.80
2019-03-22T01:20:34.314Z,32.20
2019-03-22T01:23:03.970Z,32.10
2019-03-22T01:25:33.672Z,32.20
2019-03-22T01:28:03.319Z,30.10
2019-03-22T01:30:33.498Z,30.17
2019-03-22T01:33:03.328Z,31.77
2019-03-22T01:35:33.494Z,31.67
2019-03-22T01:38:02.955Z,29.43
2019-03-22T01:40:32.836Z,31.33
2019-03-22T01:43:03.579Z,30.37
2019-03-22T01:45:33.186Z,32.23
2019-03-22T01:48:03.623Z,31.70
2019-03-22T01:50:33.084Z,30.40
2019-03-22T01:53:02.479Z,29.83
2019-03-22T01:58:08.019Z,28.73
2019-03-22T02:03:15.788Z,27.73
2019-03-22T02:05:46.719Z,26.73
2019-03-22T02:08:17.311Z,28.83
2019-03-22T02:10:47.475Z,29.27
2019-03-22T02:13:20.800Z,28.67
2019-03-22T02:15:51.378Z,28.73
2019-03-22T02:18:21.569Z,29.17
2019-03-22T02:20:53.492Z,29.23
2019-03-22T02:23:25.864Z,27.80
2019-03-22T02:25:56.039Z,27.83
2019-03-22T02:28:32.499Z,27.00
2019-03-22T02:31:03.394Z,28.77
2019-03-22T02:33:35.701Z,28.23
2019-03-22T02:36:05.892Z,29.57
2019-03-22T02:38:38.242Z,28.93
2019-03-22T02:41:07.786Z,30.87
2019-03-22T02:43:37.522Z,28.60
2019-03-22T02:46:07.885Z,28.83
2019-03-22T02:48:38.469Z,30.10
2019-03-22T02:51:08.559Z,29.07
2019-03-22T02:53:37.920Z,27.60
2019-03-22T02:56:09.663Z,27.03
2019-03-22T02:58:39.024Z,28.00
2019-03-22T03:01:11.218Z,28.30
2019-03-22T03:03:42.357Z,27.20
2019-03-22T03:06:11.989Z,26.70
2019-03-22T03:08:41.886Z,26.53
2019-03-22T03:11:12.129Z,27.40
2019-03-22T03:13:41.910Z,27.53
2019-03-22T03:16:11.718Z,27.80
2019-03-22T03:18:41.411Z,27.70
2019-03-22T03:21:11.390Z,26.97
2019-03-22T03:23:41.167Z,27.37
2019-03-22T03:26:10.804Z,26.17
2019-03-22T03:28:40.567Z,25.77
2019-03-22T03:31:10.184Z,26.57
2019-03-22T03:33:40.104Z,27.77
2019-03-22T03:36:10.238Z,27.10
2019-03-22T03:38:40.208Z,28.40
2019-03-22T03:41:09.615Z,27.57
2019-03-22T03:43:39.434Z,26.47
2019-03-22T03:46:09.079Z,27.13
2019-03-22T03:48:39.351Z,27.87
2019-03-22T03:51:09.266Z,28.57
2019-03-22T03:53:38.916Z,29.57
2019-03-22T03:56:09.088Z,28.07
2019-03-22T03:58:51.449Z,28.87
2019-03-22T04:01:10.260Z,27.60
2019-03-22T04:03:39.891Z,28.83
2019-03-22T04:06:09.516Z,29.40
2019-03-22T04:08:39.196Z,28.67
2019-03-22T04:11:09.507Z,30.30
2019-03-22T04:13:39.168Z,29.30
2019-03-22T04:16:08.808Z,29.07
2019-03-22T04:18:38.700Z,30.67
2019-03-22T04:21:08.860Z,28.93
2019-03-22T04:23:38.831Z,29.23
2019-03-22T04:26:08.646Z,30.47
2019-03-22T04:28:38.325Z,31.87
2019-03-22T04:31:08.231Z,32.83
2019-03-22T04:33:38.849Z,31.83
2019-03-22T04:36:08.250Z,32.30
2019-03-22T04:38:38.148Z,31.80
2019-03-22T04:41:08.323Z,32.30
2019-03-22T04:43:38.031Z,33.00
2019-03-22T04:46:08.442Z,32.97
2019-03-22T04:48:39.617Z,32.17
2019-03-22T04:51:10.450Z,32.60
2019-03-22T04:53:46.816Z,32.60
2019-03-22T04:56:18.431Z,33.57
2019-03-22T04:58:50.372Z,33.93
2019-03-22T05:01:21.230Z,36.87
2019-03-22T05:03:51.999Z,35.30
2019-03-22T05:06:22.525Z,36.00
2019-03-22T05:08:55.080Z,37.10
2019-03-22T05:11:25.741Z,33.93
2019-03-22T05:13:58.795Z,36.63
2019-03-22T05:16:30.427Z,33.97
2019-03-22T05:19:02.170Z,33.77
2019-03-22T05:21:34.703Z,35.63
2019-03-22T05:24:05.641Z,34.37
2019-03-22T05:26:37.465Z,34.17
2019-03-22T05:29:08.735Z,35.70
2019-03-22T05:32:09.589Z,35.43
2019-03-22T05:34:38.973Z,35.40
2019-03-22T05:37:08.815Z,36.57
2019-03-22T05:39:38.481Z,36.07
2019-03-22T05:42:08.027Z,38.43
2019-03-22T05:44:37.818Z,40.13
2019-03-22T05:47:07.206Z,37.50
2019-03-22T05:49:37.718Z,38.47
2019-03-22T05:52:10.438Z,39.40
2019-03-22T05:54:40.067Z,39.00
2019-03-22T05:57:13.542Z,38.30
2019-03-22T05:59:42.699Z,38.87
2019-03-22T06:02:12.402Z,39.33
2019-03-22T06:04:42.549Z,38.53
2019-03-22T06:07:12.494Z,37.37
2019-03-22T06:09:42.150Z,36.57
2019-03-22T06:12:12.258Z,37.90
2019-03-22T06:14:41.714Z,36.63
2019-03-22T06:17:11.764Z,35.43
2019-03-22T06:19:42.157Z,36.63
2019-03-22T06:22:11.806Z,34.90
2019-03-22T06:24:42.127Z,35.63
2019-03-22T06:27:11.866Z,37.17
2019-03-22T06:29:41.254Z,35.50
2019-03-22T06:32:11.119Z,37.47
2019-03-22T06:34:40.579Z,37.43
2019-03-22T06:37:09.896Z,35.77
2019-03-22T06:39:40.387Z,36.87
2019-03-22T06:42:09.715Z,37.50
2019-03-22T06:44:39.188Z,39.10
2019-03-22T06:47:10.963Z,39.57
2019-03-22T06:49:41.131Z,38.93
2019-03-22T06:52:10.970Z,38.80
2019-03-22T06:54:40.292Z,37.17
2019-03-22T06:57:10.184Z,37.73
2019-03-22T06:59:39.512Z,38.30
2019-03-22T07:02:09.160Z,38.57
2019-03-22T07:04:38.805Z,40.33
2019-03-22T07:07:08.931Z,40.23
2019-03-22T07:09:38.947Z,40.20
2019-03-22T07:12:08.938Z,39.63
2019-03-22T07:14:38.267Z,39.07
2019-03-22T07:17:07.614Z,39.60
2019-03-22T07:19:37.514Z,39.33
2019-03-22T07:22:07.135Z,40.33
2019-03-22T07:24:36.789Z,37.50
2019-03-22T07:27:06.300Z,37.83
2019-03-22T07:29:35.738Z,37.43
2019-03-22T07:32:05.862Z,38.70
2019-03-22T07:34:35.834Z,39.87
2019-03-22T07:37:05.270Z,38.53
2019-03-22T07:39:35.418Z,38.40
2019-03-22T07:42:05.492Z,37.47
2019-03-22T07:44:35.730Z,38.80
2019-03-22T07:47:05.209Z,39.33
2019-03-22T07:49:34.831Z,36.97
2019-03-22T07:52:04.534Z,37.57
2019-03-22T07:54:34.708Z,38.47
2019-03-22T07:57:04.453Z,37.93
2019-03-22T07:59:34.015Z,38.97
2019-03-22T08:02:03.786Z,37.83
2019-03-22T08:04:33.673Z,35.83
2019-03-22T08:07:03.627Z,37.40
2019-03-22T08:09:33.669Z,36.13
2019-03-22T08:12:03.491Z,35.27
2019-03-22T08:14:33.366Z,36.73
2019-03-22T08:17:03.004Z,34.37
2019-03-22T08:19:32.342Z,34.53
2019-03-22T08:22:01.950Z,35.80
2019-03-22T08:24:31.635Z,33.13
2019-03-22T08:27:01.502Z,34.43
2019-03-22T08:29:31.749Z,33.80
2019-03-22T08:32:01.491Z,32.90
2019-03-22T08:34:31.680Z,34.63
2019-03-22T08:37:02.125Z,35.13
2019-03-22T08:39:31.662Z,32.23
2019-03-22T08:42:01.135Z,33.90
2019-03-22T08:44:30.818Z,34.50
2019-03-22T08:47:00.335Z,32.40
2019-03-22T08:49:30.849Z,31.93
2019-03-22T08:52:01.504Z,33.07
2019-03-22T08:54:31.474Z,33.57
2019-03-22T08:57:01.167Z,33.30
2019-03-22T08:59:30.977Z,33.60
2019-03-22T09:02:00.738Z,34.40
2019-03-22T09:04:30.414Z,32.33
2019-03-22T09:06:59.841Z,34.30
2019-03-22T09:09:40.903Z,33.00
2019-03-22T09:12:01.605Z,33.37
2019-03-22T09:14:31.570Z,35.23
2019-03-22T09:17:02.497Z,34.97
2019-03-22T09:19:31.906Z,33.50
2019-03-22T09:22:01.592Z,34.90
2019-03-22T09:24:39.189Z,33.33
2019-03-22T09:27:02.136Z,33.77
2019-03-22T09:29:32.068Z,35.47
2019-03-22T09:32:02.012Z,36.63
2019-03-22T09:34:34.037Z,35.43
2019-03-22T09:37:04.126Z,35.77
2019-03-22T09:39:34.602Z,35.97
2019-03-22T09:42:04.087Z,34.67
2019-03-22T09:44:42.889Z,33.77
2019-03-22T09:47:04.468Z,34.83
2019-03-22T09:49:34.639Z,35.53
2019-03-22T09:52:04.569Z,36.30
2019-03-22T09:54:34.232Z,37.17
2019-03-22T09:57:04.537Z,40.73
2019-03-22T09:59:34.521Z,38.10
2019-03-22T10:02:04.224Z,37.43
2019-03-22T10:04:33.657Z,37.37
2019-03-22T10:07:03.108Z,37.40
2019-03-22T10:09:32.821Z,37.73
2019-03-22T10:12:02.485Z,36.77
2019-03-22T10:14:32.149Z,35.53
2019-03-22T10:17:01.843Z,38.90
2019-03-22T10:19:31.897Z,36.67
2019-03-22T10:22:01.565Z,36.87
2019-03-22T10:24:31.301Z,39.73
2019-03-22T10:27:00.671Z,37.73
2019-03-22T10:29:30.458Z,38.10
2019-03-22T10:32:00.479Z,38.67
2019-03-22T10:34:30.423Z,38.03
2019-03-22T10:37:00.773Z,37.83
2019-03-22T10:39:30.630Z,37.00
2019-03-22T10:42:00.353Z,36.60
2019-03-22T10:44:29.742Z,35.90
2019-03-22T10:46:59.382Z,36.13
2019-03-22T10:49:29.358Z,36.27
2019-03-22T10:51:59.096Z,35.60
2019-03-22T10:54:28.794Z,37.50
2019-03-22T10:56:58.216Z,38.63
2019-03-22T10:59:27.618Z,36.10
2019-03-22T11:02:03.118Z,37.20
2019-03-22T11:04:28.965Z,36.70
2019-03-22T11:07:02.735Z,35.33
2019-03-22T11:09:33.195Z,36.90
2019-03-22T11:12:11.902Z,36.03
2019-03-22T11:14:34.518Z,35.60
2019-03-22T11:17:04.430Z,36.03
2019-03-22T11:19:33.758Z,37.87
2019-03-22T11:22:03.585Z,37.47
2019-03-22T11:24:33.299Z,38.67
2019-03-22T11:27:03.535Z,37.83
2019-03-22T11:29:33.463Z,37.87
2019-03-22T11:32:12.093Z,38.03
2019-03-22T11:34:34.006Z,40.67
2019-03-22T11:37:03.520Z,40.07
2019-03-22T11:39:32.829Z,39.53
2019-03-22T11:42:02.626Z,39.40
2019-03-22T11:44:32.981Z,39.93
2019-03-22T11:47:02.766Z,39.03
2019-03-22T11:49:33.480Z,38.23
2019-03-22T11:52:03.397Z,40.80
2019-03-22T11:54:33.055Z,39.57
2019-03-22T11:57:03.557Z,40.60
2019-03-22T11:59:33.247Z,39.63
2019-03-22T12:02:03.178Z,39.70
2019-03-22T12:04:32.903Z,40.17
2019-03-22T12:07:02.330Z,39.90
2019-03-22T12:09:31.710Z,38.73
2019-03-22T12:12:01.129Z,40.20
2019-03-22T12:14:30.724Z,41.50
2019-03-22T12:17:00.176Z,38.70
2019-03-22T12:19:29.520Z,40.27
2019-03-22T12:21:58.903Z,40.37
2019-03-22T12:24:28.590Z,41.10
2019-03-22T12:26:59.062Z,37.63
2019-03-22T12:29:28.774Z,39.90
2019-03-22T12:31:59.612Z,39.00
2019-03-22T12:34:32.949Z,40.07
2019-03-22T12:37:02.887Z,38.70
2019-03-22T12:39:32.508Z,42.20
2019-03-22T12:42:02.190Z,39.57
2019-03-22T12:44:31.708Z,41.77
2019-03-22T12:47:01.736Z,41.80
2019-03-22T12:49:32.035Z,40.67
2019-03-22T12:52:02.131Z,42.00
2019-03-22T12:54:31.986Z,40.53
2019-03-22T12:57:01.409Z,39.37
2019-03-22T12:59:31.474Z,40.13
2019-03-22T13:02:01.371Z,40.00
2019-03-22T13:04:30.915Z,41.53
2019-03-22T13:07:00.602Z,40.40
2019-03-22T13:09:30.531Z,40.07
2019-03-22T13:11:59.942Z,40.23
2019-03-22T13:14:30.112Z,42.23
2019-03-22T13:16:59.509Z,39.87
2019-03-22T13:19:29.190Z,39.90
2019-03-22T13:21:58.876Z,41.53
2019-03-22T13:24:28.472Z,41.83
2019-03-22T13:26:58.096Z,41.33
2019-03-22T13:29:27.514Z,40.97
2019-03-22T13:31:56.871Z,42.37
2019-03-22T13:34:26.478Z,41.97
2019-03-22T13:36:56.383Z,41.33
2019-03-22T13:39:26.045Z,37.17
2019-03-22T13:41:55.583Z,39.97
2019-03-22T13:44:24.953Z,39.13
2019-03-22T13:46:54.460Z,41.10
2019-03-22T13:49:24.097Z,40.73
2019-03-22T13:51:53.822Z,41.47
2019-03-22T13:54:23.448Z,39.80
2019-03-22T13:56:53.358Z,39.77
2019-03-22T13:59:23.526Z,38.40
2019-03-22T14:01:53.478Z,40.57
2019-03-22T14:04:23.830Z,38.77
2019-03-22T14:06:53.988Z,37.50
2019-03-22T14:09:23.613Z,38.23
2019-03-22T14:11:53.538Z,40.43
2019-03-22T14:14:23.488Z,40.90
2019-03-22T14:16:54.075Z,42.33
2019-03-22T14:19:23.673Z,38.03
2019-03-22T14:21:53.322Z,40.17
2019-03-22T14:24:23.340Z,39.03
2019-03-22T14:26:52.812Z,39.37
2019-03-22T14:29:22.522Z,39.03
2019-03-22T14:31:51.997Z,39.80
2019-03-22T14:34:21.331Z,41.53
2019-03-22T14:36:51.244Z,40.07
2019-03-22T14:39:20.745Z,39.73
2019-03-22T14:41:50.232Z,37.93
2019-03-22T14:44:25.333Z,36.87
2019-03-22T14:46:52.360Z,37.97
2019-03-22T14:49:21.872Z,36.47
2019-03-22T14:51:52.227Z,38.93
2019-03-22T14:54:21.902Z,39.27
2019-03-22T14:56:51.833Z,38.53
2019-03-22T14:59:21.712Z,37.00
2019-03-22T15:01:53.119Z,35.53
2019-03-22T15:04:22.490Z,36.27
2019-03-22T15:06:52.463Z,37.03
2019-03-22T15:09:22.131Z,37.30
2019-03-22T15:11:52.012Z,40.03
2019-03-22T15:14:38.926Z,39.37
2019-03-22T15:17:56.179Z,41.87
2019-03-22T15:20:43.432Z,39.00
2019-03-22T15:23:30.641Z,37.77
2019-03-22T15:26:28.330Z,36.57
2019-03-22T15:29:25.385Z,36.43
2019-03-22T15:32:32.220Z,37.97
2019-03-22T15:35:19.328Z,41.07
2019-03-22T15:38:06.387Z,41.40
2019-03-22T15:40:36.007Z,40.37
2019-03-22T15:43:05.895Z,40.80
2019-03-22T15:45:35.559Z,40.37
2019-03-22T15:48:05.046Z,45.50
2019-03-22T15:50:35.443Z,43.97
2019-03-22T15:53:05.182Z,41.67
2019-03-22T15:55:34.985Z,41.03
2019-03-22T15:58:05.355Z,42.37
2019-03-22T16:00:34.820Z,41.50
2019-03-22T16:03:04.776Z,39.27
2019-03-22T16:05:35.228Z,40.30
2019-03-22T16:08:04.798Z,43.13
2019-03-22T16:10:35.067Z,42.53
2019-03-22T16:13:05.045Z,41.97
2019-03-22T16:15:35.446Z,39.97
2019-03-22T16:18:04.962Z,41.33
2019-03-22T16:20:34.854Z,40.43
2019-03-22T16:23:07.370Z,42.70
2019-03-22T16:25:37.310Z,40.27
2019-03-22T16:28:07.271Z,40.47
2019-03-22T16:30:37.034Z,40.97
2019-03-22T16:33:06.742Z,40.07
2019-03-22T16:35:36.119Z,41.27
2019-03-22T16:38:06.129Z,40.27
2019-03-22T16:40:35.802Z,39.23
2019-03-22T16:43:06.178Z,39.70
2019-03-22T16:45:40.776Z,39.23
2019-03-22T16:48:10.390Z,38.63
2019-03-22T16:50:40.381Z,39.30
2019-03-22T16:53:09.871Z,36.43
2019-03-22T16:55:39.753Z,36.70
2019-03-22T16:58:10.204Z,37.70
2019-03-22T17:00:39.733Z,37.60
2019-03-22T17:03:09.514Z,37.13
2019-03-22T17:05:40.199Z,35.63
2019-03-22T17:08:10.035Z,36.80
2019-03-22T17:10:40.095Z,37.73
2019-03-22T17:13:09.783Z,38.47
2019-03-22T17:15:40.523Z,37.80
2019-03-22T17:18:10.806Z,36.97
2019-03-22T17:20:40.743Z,37.03
2019-03-22T17:23:10.776Z,36.03
2019-03-22T17:25:41.099Z,37.47
2019-03-22T17:28:10.714Z,37.67
2019-03-22T17:30:41.701Z,36.10
2019-03-22T17:33:11.616Z,37.23
2019-03-22T17:35:41.719Z,38.90
2019-03-22T17:38:11.666Z,37.60
2019-03-22T17:40:42.162Z,37.93
2019-03-22T17:43:12.455Z,37.63
2019-03-22T17:45:41.841Z,36.67
2019-03-22T17:48:11.592Z,37.87
2019-03-22T17:50:41.243Z,38.73
2019-03-22T17:53:11.226Z,37.57
2019-03-22T17:55:42.863Z,38.10
2019-03-22T17:58:13.506Z,38.83
2019-03-22T18:00:43.579Z,36.77
2019-03-22T18:03:13.486Z,35.93
2019-03-22T18:05:43.882Z,36.70
2019-03-22T18:08:13.526Z,36.60
2019-03-22T18:10:43.145Z,38.13
2019-03-22T18:13:12.660Z,37.43
2019-03-22T18:15:42.028Z,37.33
2019-03-22T18:18:11.469Z,37.53
2019-03-22T18:20:41.421Z,37.83
2019-03-22T18:23:10.818Z,39.00
2019-03-22T18:25:40.148Z,37.00
2019-03-22T18:28:09.993Z,37.83
2019-03-22T18:30:39.398Z,37.50
2019-03-22T18:33:10.401Z,36.83
2019-03-22T18:35:40.277Z,37.30
2019-03-22T18:38:10.848Z,38.30
2019-03-22T18:40:40.851Z,38.83
2019-03-22T18:43:10.247Z,38.00
2019-03-22T18:45:39.848Z,37.43
2019-03-22T18:48:09.766Z,40.93
2019-03-22T18:50:39.620Z,38.23
2019-03-22T18:53:09.282Z,37.03
2019-03-22T18:55:39.173Z,37.60
2019-03-22T18:58:09.934Z,37.37
2019-03-22T19:00:39.601Z,36.23
2019-03-22T19:03:09.930Z,37.17
2019-03-22T19:05:39.702Z,36.13
2019-03-22T19:08:09.512Z,36.40
2019-03-22T19:10:38.946Z,37.47
2019-03-22T19:13:09.033Z,39.73
2019-03-22T19:15:38.940Z,36.67
2019-03-22T19:18:08.771Z,37.87
2019-03-22T19:20:38.542Z,38.03
2019-03-22T19:23:08.328Z,37.57
2019-03-22T19:25:38.060Z,35.23
2019-03-22T19:28:08.171Z,33.70
2019-03-22T19:30:38.945Z,33.70
2019-03-22T19:33:08.345Z,32.80
2019-03-22T19:35:38.261Z,34.87
2019-03-22T19:38:08.088Z,34.17
2019-03-22T19:40:38.048Z,34.07
2019-03-22T19:43:08.139Z,34.87
2019-03-22T19:45:38.286Z,39.50
2019-03-22T19:48:08.157Z,37.47
2019-03-22T19:50:38.188Z,36.30
2019-03-22T19:53:08.102Z,38.63
2019-03-22T19:55:38.126Z,41.07
2019-03-22T19:58:07.805Z,39.10
2019-03-22T20:00:37.787Z,43.13
2019-03-22T20:03:07.459Z,40.47
2019-03-22T20:05:42.384Z,43.13
2019-03-22T20:08:13.917Z,44.57
2019-03-22T20:10:43.691Z,45.03
2019-03-22T20:13:13.328Z,45.10
2019-03-22T20:15:42.998Z,43.97
2019-03-22T20:18:13.544Z,45.57
2019-03-22T20:20:43.276Z,45.37
2019-03-22T20:23:13.340Z,44.70
2019-03-22T20:25:42.819Z,47.40
2019-03-22T20:28:13.627Z,46.30
2019-03-22T20:30:44.283Z,45.63
2019-03-22T20:33:14.706Z,44.80
2019-03-22T20:35:44.676Z,45.03
2019-03-22T20:38:14.288Z,46.57
2019-03-22T20:40:44.250Z,46.60
2019-03-22T20:43:14.495Z,46.90
2019-03-22T20:45:44.118Z,47.37
2019-03-22T20:48:14.080Z,44.33
2019-03-22T20:50:43.744Z,46.40
2019-03-22T20:53:13.451Z,46.77
2019-03-22T20:55:42.946Z,45.60
2019-03-22T20:58:12.441Z,46.27
2019-03-22T21:00:41.977Z,45.13
2019-03-22T21:03:11.658Z,48.63
2019-03-22T21:05:41.239Z,48.00
2019-03-22T21:08:11.026Z,45.00
2019-03-22T21:10:41.084Z,48.10
2019-03-22T21:13:11.058Z,46.00
2019-03-22T21:15:40.671Z,47.53
2019-03-22T21:18:10.887Z,47.27
2019-03-22T21:20:43.486Z,46.43
2019-03-22T21:23:13.106Z,48.53
2019-03-22T21:25:42.852Z,45.97
2019-03-22T21:28:12.498Z,46.10
2019-03-22T21:30:42.202Z,47.53
2019-03-22T21:33:11.986Z,46.20
2019-03-22T21:35:41.446Z,46.27
2019-03-22T21:38:11.430Z,47.17
2019-03-22T21:40:41.039Z,48.73
2019-03-22T21:43:11.499Z,47.23
2019-03-22T21:45:41.722Z,46.83
2019-03-22T21:48:11.440Z,46.90
2019-03-22T21:50:41.603Z,47.03
2019-03-22T21:53:11.022Z,47.13
2019-03-22T21:55:40.793Z,47.47
2019-03-22T21:58:10.561Z,47.23
2019-03-22T22:00:40.274Z,46.33
2019-03-22T22:03:10.273Z,45.37
2019-03-22T22:05:47.470Z,46.07
2019-03-22T22:08:11.910Z,45.60
2019-03-22T22:10:41.817Z,46.87
2019-03-22T22:13:12.810Z,47.43
2019-03-22T22:15:42.348Z,47.90
2019-03-22T22:18:13.094Z,48.43
2019-03-22T22:20:42.469Z,47.00
2019-03-22T22:23:12.206Z,44.50
2019-03-22T22:25:42.300Z,45.63
2019-03-22T22:28:13.302Z,46.20
2019-03-22T22:30:43.001Z,45.53
2019-03-22T22:33:12.518Z,48.30
2019-03-22T22:35:42.643Z,48.70
2019-03-22T22:38:12.367Z,44.93
2019-03-22T22:40:42.428Z,47.97
2019-03-22T22:43:11.929Z,46.87
2019-03-22T22:45:41.314Z,46.23
2019-03-22T22:48:11.380Z,47.23
2019-03-22T22:50:40.713Z,46.93
2019-03-22T22:53:10.786Z,45.67
2019-03-22T22:55:40.218Z,44.17
2019-03-22T22:58:10.211Z,48.27
2019-03-22T23:00:40.968Z,46.33
2019-03-22T23:03:10.751Z,46.73
2019-03-22T23:05:40.134Z,46.00
2019-03-22T23:08:09.621Z,47.13
2019-03-22T23:10:39.629Z,45.60
2019-03-22T23:13:08.974Z,45.17
2019-03-22T23:15:38.695Z,48.23
2019-03-22T23:18:08.130Z,46.00
2019-03-22T23:20:37.591Z,46.70
2019-03-22T23:23:07.466Z,46.43
2019-03-22T23:25:36.985Z,46.33
2019-03-22T23:28:06.944Z,47.33
2019-03-22T23:30:36.429Z,46.03
2019-03-22T23:33:06.214Z,46.27
2019-03-22T23:35:36.448Z,44.80
2019-03-22T23:38:06.262Z,44.53
2019-03-22T23:40:36.528Z,45.07
2019-03-22T23:43:06.528Z,45.03
2019-03-22T23:45:36.474Z,43.50
2019-03-22T23:48:06.211Z,44.90
2019-03-22T23:50:35.982Z,44.00
2019-03-22T23:53:05.475Z,44.63
2019-03-22T23:55:35.498Z,46.07
2019-03-22T23:58:05.092Z,46.47
